sensor_id;sensor_type;location;lat;lon;timestamp;pressure;altitude;pressure_sealevel;temperature;humidity
18850;BME280;4989;48.772;9.154;2022-10-28T00:00:28;98722.50;;;16.74;98.42
18850;BME280;4989;48.772;9.154;2022-10-28T00:05:33;98721.56;;;16.90;95.59
18850;BME280;4989;48.772;9.154;2022-10-28T00:10:36;98730.72;;;16.74;100.00
18850;BME280;4989;48.772;9.154;2022-10-28T00:15:38;98728.66;;;16.78;99.39
18850;BME280;4989;48.772;9.154;2022-10-28T00:20:40;98718.31;;;17.26;100.00
18850;BME280;4989;48.772;9.154;2022-10-28T00:25:43;98714.72;;;17.38;95.17
18850;BME280;4989;48.772;9.154;2022-10-28T00:30:45;98715.75;;;16.88;96.81
18850;BME280;4989;48.772;9.154;2022-10-28T00:35:48;98712.91;;;17.13;100.00
18850;BME280;4989;48.772;9.154;2022-10-28T00:40:50;98715.31;;;17.33;99.24
18850;BME280;4989;48.772;9.154;2022-10-28T00:45:53;98718.69;;;17.15;98.05
18850;BME280;4989;48.772;9.154;2022-10-28T00:50:55;98716.38;;;17.36;97.46
18850;BME280;4989;48.772;9.154;2022-10-28T00:56:00;98716.63;;;17.51;100.00
18850;BME280;4989;48.772;9.154;2022-10-28T01:01:03;98712.72;;;17.92;100.00
18850;BME280;4989;48.772;9.154;2022-10-28T01:06:06;98720.25;;;18.01;100.00
18850;BME280;4989;48.772;9.154;2022-10-28T01:33:27;98709.84;;;18.05;92.50
18850;BME280;4989;48.772;9.154;2022-10-28T01:38:50;98706.53;;;18.19;100.00
18850;BME280;4989;48.772;9.154;2022-10-28T01:54:25;98694.97;;;18.61;100.00
18850;BME280;4989;48.772;9.154;2022-10-28T01:59:30;98700.31;;;18.65;100.00
18850;BME280;4989;48.772;9.154;2022-10-28T02:04:34;98701.53;;;18.64;100.00
18850;BME280;4989;48.772;9.154;2022-10-28T02:20:32;98692.50;;;18.36;89.24
18850;BME280;4989;48.772;9.154;2022-10-28T02:31:06;98684.88;;;18.67;100.00
18850;BME280;4989;48.772;9.154;2022-10-28T02:36:14;98686.72;;;18.70;94.64
18850;BME280;4989;48.772;9.154;2022-10-28T02:46:47;98675.88;;;18.76;99.07
18850;BME280;4989;48.772;9.154;2022-10-28T02:51:54;98677.25;;;18.81;92.55
18850;BME280;4989;48.772;9.154;2022-10-28T02:57:07;98677.97;;;18.72;93.61
18850;BME280;4989;48.772;9.154;2022-10-28T03:02:11;98678.72;;;18.26;87.42
18850;BME280;4989;48.772;9.154;2022-10-28T03:07:13;98677.38;;;18.40;96.96
18850;BME280;4989;48.772;9.154;2022-10-28T03:12:16;98675.53;;;18.37;95.17
18850;BME280;4989;48.772;9.154;2022-10-28T03:17:18;98679.06;;;18.65;98.07
18850;BME280;4989;48.772;9.154;2022-10-28T03:22:21;98677.38;;;18.40;82.12
18850;BME280;4989;48.772;9.154;2022-10-28T03:27:23;98673.44;;;17.82;85.86
18850;BME280;4989;48.772;9.154;2022-10-28T03:32:25;98675.38;;;18.31;95.62
18850;BME280;4989;48.772;9.154;2022-10-28T03:37:28;98678.47;;;18.61;95.16
18850;BME280;4989;48.772;9.154;2022-10-28T03:42:30;98676.16;;;18.50;91.50
18850;BME280;4989;48.772;9.154;2022-10-28T03:47:39;98682.06;;;18.30;92.92
18850;BME280;4989;48.772;9.154;2022-10-28T03:52:43;98673.81;;;18.30;92.85
18850;BME280;4989;48.772;9.154;2022-10-28T03:57:45;98675.13;;;17.89;90.50
18850;BME280;4989;48.772;9.154;2022-10-28T04:02:51;98668.66;;;17.52;91.58
18850;BME280;4989;48.772;9.154;2022-10-28T04:07:54;98658.19;;;17.28;92.16
18850;BME280;4989;48.772;9.154;2022-10-28T04:13:04;98659.63;;;17.11;93.44
18850;BME280;4989;48.772;9.154;2022-10-28T04:18:07;98667.63;;;17.27;100.00
18850;BME280;4989;48.772;9.154;2022-10-28T04:23:14;98656.44;;;17.44;97.67
18850;BME280;4989;48.772;9.154;2022-10-28T04:28:17;98654.38;;;17.97;100.00
18850;BME280;4989;48.772;9.154;2022-10-28T04:33:20;98654.28;;;17.79;85.13
18850;BME280;4989;48.772;9.154;2022-10-28T04:38:23;98652.47;;;17.85;83.94
18850;BME280;4989;48.772;9.154;2022-10-28T04:43:26;98652.34;;;17.89;84.85
18850;BME280;4989;48.772;9.154;2022-10-28T04:48:28;98654.69;;;18.08;82.99
18850;BME280;4989;48.772;9.154;2022-10-28T04:53:31;98651.19;;;17.68;82.09
18850;BME280;4989;48.772;9.154;2022-10-28T04:58:33;98659.59;;;17.64;82.58
18850;BME280;4989;48.772;9.154;2022-10-28T05:03:36;98656.00;;;17.54;83.87
18850;BME280;4989;48.772;9.154;2022-10-28T05:08:38;98653.09;;;17.49;86.67
18850;BME280;4989;48.772;9.154;2022-10-28T05:13:41;98644.25;;;17.54;90.61
18850;BME280;4989;48.772;9.154;2022-10-28T05:18:43;98638.72;;;17.45;85.69
18850;BME280;4989;48.772;9.154;2022-10-28T05:24:06;98627.78;;;17.63;97.87
18850;BME280;4989;48.772;9.154;2022-10-28T05:29:08;98622.72;;;18.02;97.24
18850;BME280;4989;48.772;9.154;2022-10-28T05:34:10;98623.97;;;18.01;93.94
18850;BME280;4989;48.772;9.154;2022-10-28T05:39:13;98624.84;;;17.89;82.43
18850;BME280;4989;48.772;9.154;2022-10-28T05:44:15;98625.81;;;18.04;95.14
18850;BME280;4989;48.772;9.154;2022-10-28T05:49:18;98622.75;;;18.39;99.14
18850;BME280;4989;48.772;9.154;2022-10-28T05:54:21;98621.06;;;18.60;93.01
18850;BME280;4989;48.772;9.154;2022-10-28T05:59:23;98624.91;;;18.44;80.99
18850;BME280;4989;48.772;9.154;2022-10-28T06:04:26;98631.16;;;18.63;88.19
18850;BME280;4989;48.772;9.154;2022-10-28T06:09:28;98625.81;;;18.13;74.23
18850;BME280;4989;48.772;9.154;2022-10-28T06:14:31;98630.28;;;17.70;75.70
18850;BME280;4989;48.772;9.154;2022-10-28T06:19:33;98636.03;;;17.63;78.03
18850;BME280;4989;48.772;9.154;2022-10-28T06:24:35;98639.44;;;17.67;74.70
18850;BME280;4989;48.772;9.154;2022-10-28T06:29:38;98642.19;;;17.67;74.53
18850;BME280;4989;48.772;9.154;2022-10-28T06:34:40;98647.97;;;17.69;73.94
18850;BME280;4989;48.772;9.154;2022-10-28T06:39:43;98635.03;;;17.79;73.30
18850;BME280;4989;48.772;9.154;2022-10-28T06:44:47;98634.94;;;17.92;72.04
18850;BME280;4989;48.772;9.154;2022-10-28T06:49:50;98635.25;;;18.03;70.39
18850;BME280;4989;48.772;9.154;2022-10-28T06:54:52;98638.94;;;18.09;69.78
18850;BME280;4989;48.772;9.154;2022-10-28T06:59:54;98634.06;;;18.22;68.94
18850;BME280;4989;48.772;9.154;2022-10-28T07:04:57;98625.50;;;18.29;68.22
18850;BME280;4989;48.772;9.154;2022-10-28T07:09:59;98625.81;;;18.31;68.39
18850;BME280;4989;48.772;9.154;2022-10-28T07:15:02;98636.25;;;18.37;68.22
18850;BME280;4989;48.772;9.154;2022-10-28T07:20:05;98645.09;;;18.41;68.19
18850;BME280;4989;48.772;9.154;2022-10-28T07:25:08;98650.28;;;18.20;69.61
18850;BME280;4989;48.772;9.154;2022-10-28T07:30:11;98664.63;;;18.15;70.01
18850;BME280;4989;48.772;9.154;2022-10-28T07:35:13;98679.75;;;18.11;70.84
18850;BME280;4989;48.772;9.154;2022-10-28T07:40:16;98674.38;;;17.89;72.67
18850;BME280;4989;48.772;9.154;2022-10-28T07:45:19;98667.28;;;17.78;74.03
18850;BME280;4989;48.772;9.154;2022-10-28T07:50:22;98680.88;;;17.82;73.98
18850;BME280;4989;48.772;9.154;2022-10-28T07:55:24;98689.66;;;17.99;72.26
18850;BME280;4989;48.772;9.154;2022-10-28T08:00:27;98691.41;;;18.24;71.08
18850;BME280;4989;48.772;9.154;2022-10-28T08:05:29;98689.47;;;18.43;70.39
18850;BME280;4989;48.772;9.154;2022-10-28T08:10:32;98685.47;;;18.44;70.13
18850;BME280;4989;48.772;9.154;2022-10-28T08:15:34;98688.53;;;18.46;70.25
18850;BME280;4989;48.772;9.154;2022-10-28T08:20:37;98687.91;;;18.51;70.24
18850;BME280;4989;48.772;9.154;2022-10-28T08:25:50;98690.38;;;18.49;70.40
18850;BME280;4989;48.772;9.154;2022-10-28T08:30:53;98697.25;;;18.53;70.43
18850;BME280;4989;48.772;9.154;2022-10-28T08:36:14;98692.69;;;18.78;74.30
18850;BME280;4989;48.772;9.154;2022-10-28T08:41:37;98688.81;;;19.31;81.17
18850;BME280;4989;48.772;9.154;2022-10-28T08:51:57;98680.81;;;19.33;74.55
18850;BME280;4989;48.772;9.154;2022-10-28T08:57:08;98674.66;;;19.47;77.56
18850;BME280;4989;48.772;9.154;2022-10-28T09:07:51;98685.72;;;20.13;78.90
18850;BME280;4989;48.772;9.154;2022-10-28T09:13:05;98682.56;;;20.30;79.04
18850;BME280;4989;48.772;9.154;2022-10-28T09:23:33;98720.31;;;20.24;74.58
18850;BME280;4989;48.772;9.154;2022-10-28T09:28:59;98712.59;;;19.80;73.38
18850;BME280;4989;48.772;9.154;2022-10-28T09:34:25;98669.13;;;19.56;73.61
18850;BME280;4989;48.772;9.154;2022-10-28T09:39:42;98668.94;;;19.69;81.68
18850;BME280;4989;48.772;9.154;2022-10-28T09:44:54;98685.31;;;19.73;78.96
18850;BME280;4989;48.772;9.154;2022-10-28T09:50:02;98666.78;;;20.06;75.95
18850;BME280;4989;48.772;9.154;2022-10-28T09:55:17;98669.16;;;20.62;69.23
18850;BME280;4989;48.772;9.154;2022-10-28T10:00:21;98663.88;;;21.32;63.92
18850;BME280;4989;48.772;9.154;2022-10-28T10:05:25;98663.69;;;21.65;60.33
18850;BME280;4989;48.772;9.154;2022-10-28T10:10:31;98658.53;;;21.73;59.66
18850;BME280;4989;48.772;9.154;2022-10-28T10:15:37;98665.66;;;21.80;59.40
18850;BME280;4989;48.772;9.154;2022-10-28T10:20:49;98674.31;;;21.87;59.42
18850;BME280;4989;48.772;9.154;2022-10-28T10:26:02;98676.47;;;21.98;58.64
18850;BME280;4989;48.772;9.154;2022-10-28T10:31:22;98603.16;;;21.73;59.35
18850;BME280;4989;48.772;9.154;2022-10-28T10:36:27;98654.91;;;21.67;60.56
18850;BME280;4989;48.772;9.154;2022-10-28T10:41:39;98660.34;;;21.96;57.35
18850;BME280;4989;48.772;9.154;2022-10-28T10:46:42;98642.75;;;22.00;58.06
18850;BME280;4989;48.772;9.154;2022-10-28T10:51:55;98669.66;;;22.14;56.60
18850;BME280;4989;48.772;9.154;2022-10-28T10:57:09;98668.25;;;22.18;56.47
18850;BME280;4989;48.772;9.154;2022-10-28T11:07:24;98661.91;;;22.38;56.60
18850;BME280;4989;48.772;9.154;2022-10-28T11:17:33;98651.81;;;22.56;55.93
18850;BME280;4989;48.772;9.154;2022-10-28T11:22:45;98651.31;;;22.57;56.71
18850;BME280;4989;48.772;9.154;2022-10-28T11:33:18;98654.31;;;22.33;58.33
18850;BME280;4989;48.772;9.154;2022-10-28T11:39:00;98638.34;;;22.08;67.99
18850;BME280;4989;48.772;9.154;2022-10-28T11:55:35;98551.94;;;21.42;72.90
18850;BME280;4989;48.772;9.154;2022-10-28T12:01:20;98571.31;;;21.63;73.24
18850;BME280;4989;48.772;9.154;2022-10-28T12:16:53;98612.97;;;22.09;72.36
18850;BME280;4989;48.772;9.154;2022-10-28T12:22:11;98600.91;;;22.79;65.16
18850;BME280;4989;48.772;9.154;2022-10-28T12:27:29;98607.91;;;23.32;62.98
18850;BME280;4989;48.772;9.154;2022-10-28T12:32:33;98600.19;;;23.42;65.44
18850;BME280;4989;48.772;9.154;2022-10-28T12:37:49;98589.44;;;23.61;63.08
18850;BME280;4989;48.772;9.154;2022-10-28T12:43:06;98586.78;;;23.41;61.94
18850;BME280;4989;48.772;9.154;2022-10-28T12:48:34;98578.13;;;23.27;63.80
18850;BME280;4989;48.772;9.154;2022-10-28T12:59:23;98574.88;;;22.97;68.64
18850;BME280;4989;48.772;9.154;2022-10-28T13:04:29;98566.47;;;23.23;69.12
18850;BME280;4989;48.772;9.154;2022-10-28T13:21:20;98572.94;;;22.57;72.23
18850;BME280;4989;48.772;9.154;2022-10-28T13:31:36;98572.19;;;22.56;69.62
18850;BME280;4989;48.772;9.154;2022-10-28T13:36:46;98570.63;;;22.50;69.88
18850;BME280;4989;48.772;9.154;2022-10-28T13:52:42;98568.38;;;22.28;72.81
18850;BME280;4989;48.772;9.154;2022-10-28T13:57:47;98558.88;;;22.14;74.23
18850;BME280;4989;48.772;9.154;2022-10-28T14:02:56;98568.84;;;22.06;74.64
18850;BME280;4989;48.772;9.154;2022-10-28T14:08:01;98569.25;;;21.99;72.51
18850;BME280;4989;48.772;9.154;2022-10-28T14:49:35;98597.53;;;22.96;63.33
18850;BME280;4989;48.772;9.154;2022-10-28T14:54:54;98593.41;;;23.17;60.97
18850;BME280;4989;48.772;9.154;2022-10-28T15:00:03;98595.22;;;23.20;61.08
18850;BME280;4989;48.772;9.154;2022-10-28T15:05:16;98581.09;;;23.18;61.72
18850;BME280;4989;48.772;9.154;2022-10-28T15:10:26;98587.16;;;23.22;60.98
18850;BME280;4989;48.772;9.154;2022-10-28T15:15:31;98582.59;;;23.19;60.77
18850;BME280;4989;48.772;9.154;2022-10-28T15:20:35;98580.34;;;23.23;59.91
18850;BME280;4989;48.772;9.154;2022-10-28T15:25:37;98570.84;;;23.30;59.83
18850;BME280;4989;48.772;9.154;2022-10-28T15:30:56;98574.91;;;23.35;59.42
18850;BME280;4989;48.772;9.154;2022-10-28T15:36:30;98570.59;;;23.34;58.89
18850;BME280;4989;48.772;9.154;2022-10-28T15:41:43;98562.34;;;23.45;58.48
18850;BME280;4989;48.772;9.154;2022-10-28T15:46:48;98558.53;;;23.37;58.91
18850;BME280;4989;48.772;9.154;2022-10-28T15:57:25;98569.56;;;23.31;59.04
18850;BME280;4989;48.772;9.154;2022-10-28T16:03:04;98571.03;;;23.26;58.85
18850;BME280;4989;48.772;9.154;2022-10-28T16:08:58;98566.66;;;23.14;59.18
18850;BME280;4989;48.772;9.154;2022-10-28T16:14:38;98563.66;;;23.18;59.29
18850;BME280;4989;48.772;9.154;2022-10-28T16:20:29;98580.53;;;23.14;60.11
18850;BME280;4989;48.772;9.154;2022-10-28T16:25:14;98596.78;;;22.95;61.60
18850;BME280;4989;48.772;9.154;2022-10-28T16:30:17;98586.34;;;22.84;61.94
18850;BME280;4989;48.772;9.154;2022-10-28T16:35:21;98577.19;;;22.78;61.88
18850;BME280;4989;48.772;9.154;2022-10-28T16:40:25;98584.69;;;22.72;62.50
18850;BME280;4989;48.772;9.154;2022-10-28T16:45:49;98583.63;;;22.64;62.80
18850;BME280;4989;48.772;9.154;2022-10-28T16:51:10;98589.84;;;22.59;62.92
18850;BME280;4989;48.772;9.154;2022-10-28T16:56:14;98593.13;;;22.57;63.23
18850;BME280;4989;48.772;9.154;2022-10-28T17:01:19;98596.59;;;22.52;63.10
18850;BME280;4989;48.772;9.154;2022-10-28T17:06:22;98615.66;;;22.45;63.61
18850;BME280;4989;48.772;9.154;2022-10-28T17:11:25;98612.47;;;22.31;64.02
18850;BME280;4989;48.772;9.154;2022-10-28T17:16:27;98610.72;;;22.13;65.00
18850;BME280;4989;48.772;9.154;2022-10-28T17:21:29;98616.41;;;22.04;65.73
18850;BME280;4989;48.772;9.154;2022-10-28T17:26:32;98612.66;;;21.87;72.59
18850;BME280;4989;48.772;9.154;2022-10-28T17:31:34;98619.56;;;21.77;75.05
18850;BME280;4989;48.772;9.154;2022-10-28T17:36:36;98623.22;;;21.68;76.52
18850;BME280;4989;48.772;9.154;2022-10-28T17:41:39;98624.00;;;21.54;73.82
18850;BME280;4989;48.772;9.154;2022-10-28T17:46:41;98613.91;;;21.50;76.08
18850;BME280;4989;48.772;9.154;2022-10-28T17:51:44;98626.13;;;21.44;78.63
18850;BME280;4989;48.772;9.154;2022-10-28T17:56:46;98627.09;;;21.41;78.92
18850;BME280;4989;48.772;9.154;2022-10-28T18:01:50;98644.22;;;21.30;76.47
18850;BME280;4989;48.772;9.154;2022-10-28T18:06:54;98639.47;;;20.86;75.93
18850;BME280;4989;48.772;9.154;2022-10-28T18:11:57;98635.47;;;20.87;72.78
18850;BME280;4989;48.772;9.154;2022-10-28T18:17:00;98633.75;;;20.75;72.49
18850;BME280;4989;48.772;9.154;2022-10-28T18:22:03;98631.06;;;20.66;77.05
18850;BME280;4989;48.772;9.154;2022-10-28T18:27:05;98633.94;;;20.71;77.16
18850;BME280;4989;48.772;9.154;2022-10-28T18:32:08;98632.97;;;20.59;77.18
18850;BME280;4989;48.772;9.154;2022-10-28T18:37:10;98633.66;;;20.45;79.29
18850;BME280;4989;48.772;9.154;2022-10-28T18:42:13;98633.16;;;20.56;80.67
18850;BME280;4989;48.772;9.154;2022-10-28T18:47:21;98638.13;;;20.67;79.86
18850;BME280;4989;48.772;9.154;2022-10-28T18:52:24;98640.97;;;20.72;80.52
18850;BME280;4989;48.772;9.154;2022-10-28T18:57:26;98644.22;;;20.71;80.26
18850;BME280;4989;48.772;9.154;2022-10-28T19:02:29;98650.63;;;20.77;83.12
18850;BME280;4989;48.772;9.154;2022-10-28T19:07:32;98649.38;;;20.78;79.05
18850;BME280;4989;48.772;9.154;2022-10-28T19:12:34;98640.59;;;20.65;74.18
18850;BME280;4989;48.772;9.154;2022-10-28T19:17:45;98640.28;;;20.63;72.52
18850;BME280;4989;48.772;9.154;2022-10-28T19:22:47;98630.84;;;20.54;73.23
18850;BME280;4989;48.772;9.154;2022-10-28T19:27:53;98622.09;;;20.56;71.48
18850;BME280;4989;48.772;9.154;2022-10-28T19:32:55;98618.88;;;20.57;69.04
18850;BME280;4989;48.772;9.154;2022-10-28T19:37:58;98621.66;;;20.48;68.39
18850;BME280;4989;48.772;9.154;2022-10-28T19:43:00;98623.56;;;20.42;67.87
18850;BME280;4989;48.772;9.154;2022-10-28T19:48:03;98612.88;;;20.35;69.82
18850;BME280;4989;48.772;9.154;2022-10-28T19:53:05;98631.44;;;20.34;74.47
18850;BME280;4989;48.772;9.154;2022-10-28T19:58:08;98637.09;;;20.40;72.93
18850;BME280;4989;48.772;9.154;2022-10-28T20:03:10;98637.66;;;20.44;75.05
18850;BME280;4989;48.772;9.154;2022-10-28T20:08:12;98638.38;;;20.30;69.98
18850;BME280;4989;48.772;9.154;2022-10-28T20:13:15;98637.94;;;20.07;71.55
18850;BME280;4989;48.772;9.154;2022-10-28T20:18:17;98638.28;;;20.00;71.97
18850;BME280;4989;48.772;9.154;2022-10-28T20:23:20;98646.84;;;20.02;75.07
18850;BME280;4989;48.772;9.154;2022-10-28T20:28:23;98659.75;;;19.96;73.01
18850;BME280;4989;48.772;9.154;2022-10-28T20:33:26;98661.59;;;19.99;76.64
18850;BME280;4989;48.772;9.154;2022-10-28T20:38:29;98662.94;;;20.04;76.11
18850;BME280;4989;48.772;9.154;2022-10-28T20:43:36;98669.13;;;20.23;77.65
18850;BME280;4989;48.772;9.154;2022-10-28T20:48:38;98672.56;;;20.08;74.93
18850;BME280;4989;48.772;9.154;2022-10-28T20:53:41;98676.41;;;19.78;78.63
18850;BME280;4989;48.772;9.154;2022-10-28T20:58:44;98675.22;;;19.60;78.33
18850;BME280;4989;48.772;9.154;2022-10-28T21:03:46;98671.94;;;19.38;78.30
18850;BME280;4989;48.772;9.154;2022-10-28T21:08:49;98673.84;;;19.13;79.61
18850;BME280;4989;48.772;9.154;2022-10-28T21:13:54;98681.22;;;18.89;81.08
18850;BME280;4989;48.772;9.154;2022-10-28T21:18:57;98669.91;;;18.77;82.09
18850;BME280;4989;48.772;9.154;2022-10-28T21:24:03;98680.59;;;18.75;83.47
18850;BME280;4989;48.772;9.154;2022-10-28T21:29:06;98679.06;;;18.84;82.54
18850;BME280;4989;48.772;9.154;2022-10-28T21:34:08;98690.06;;;18.65;83.72
18850;BME280;4989;48.772;9.154;2022-10-28T21:39:10;98697.09;;;18.66;83.41
18850;BME280;4989;48.772;9.154;2022-10-28T21:44:13;98703.22;;;18.34;85.10
18850;BME280;4989;48.772;9.154;2022-10-28T21:49:15;98717.75;;;17.94;86.62
18850;BME280;4989;48.772;9.154;2022-10-28T21:54:18;98718.00;;;17.77;88.81
18850;BME280;4989;48.772;9.154;2022-10-28T21:59:20;98721.47;;;18.09;87.98
18850;BME280;4989;48.772;9.154;2022-10-28T22:04:23;98722.06;;;17.95;89.54
18850;BME280;4989;48.772;9.154;2022-10-28T22:09:25;98714.28;;;17.71;90.43
18850;BME280;4989;48.772;9.154;2022-10-28T22:14:28;98708.66;;;17.75;91.36
18850;BME280;4989;48.772;9.154;2022-10-28T22:19:31;98716.56;;;17.95;90.68
18850;BME280;4989;48.772;9.154;2022-10-28T22:24:33;98710.84;;;17.80;90.21
18850;BME280;4989;48.772;9.154;2022-10-28T22:29:36;98709.75;;;17.46;93.77
18850;BME280;4989;48.772;9.154;2022-10-28T22:34:39;98723.69;;;17.30;95.45
18850;BME280;4989;48.772;9.154;2022-10-28T22:39:41;98726.09;;;17.50;93.56
18850;BME280;4989;48.772;9.154;2022-10-28T22:44:43;98732.63;;;17.21;94.64
18850;BME280;4989;48.772;9.154;2022-10-28T22:49:46;98727.59;;;16.98;98.24
18850;BME280;4989;48.772;9.154;2022-10-28T22:54:48;98730.34;;;16.98;98.90
18850;BME280;4989;48.772;9.154;2022-10-28T22:59:51;98736.19;;;16.87;100.00
18850;BME280;4989;48.772;9.154;2022-10-28T23:04:53;98733.59;;;16.83;100.00
18850;BME280;4989;48.772;9.154;2022-10-28T23:09:55;98733.25;;;16.81;100.00
18850;BME280;4989;48.772;9.154;2022-10-28T23:14:59;98729.09;;;16.64;100.00
18850;BME280;4989;48.772;9.154;2022-10-28T23:20:02;98727.13;;;16.99;100.00
18850;BME280;4989;48.772;9.154;2022-10-28T23:25:05;98724.44;;;17.30;99.62
18850;BME280;4989;48.772;9.154;2022-10-28T23:30:10;98728.13;;;16.70;100.00
18850;BME280;4989;48.772;9.154;2022-10-28T23:35:13;98727.97;;;16.74;100.00
18850;BME280;4989;48.772;9.154;2022-10-28T23:40:16;98731.59;;;17.06;100.00
18850;BME280;4989;48.772;9.154;2022-10-28T23:45:18;98733.00;;;17.32;99.16
18850;BME280;4989;48.772;9.154;2022-10-28T23:50:21;98747.00;;;17.03;100.00
18850;BME280;4989;48.772;9.154;2022-10-28T23:55:23;98730.66;;;16.65;100.00
